This is the latest recevied weather packets stored in our database for station/object DL5DI-H. If no packets are shown the sender has not sent any weather packets the latest 1 day(s).
| Time | Temp. | Humidity | Pressure | Rain* | Wind** | Luminosity | Snow |
|---|---|---|---|---|---|---|---|
| 1777988405 | 17.78° C | 77% | 1007.8 hPa | 0 mm | 0.45 m/s, 29° | - | - |
| 1777987801 | 17.78° C | 77% | 1007.8 hPa | 0 mm | 0.45 m/s, 29° | - | - |
| 1777987205 | 17.78° C | 77% | 1007.9 hPa | 0 mm | 0.89 m/s, 12° | - | - |
| 1777986601 | 18.33° C | 77% | 1008 hPa | 0 mm | 0.89 m/s, 35° | - | - |
| 1777986005 | 18.33° C | 77% | 1008 hPa | 0 mm | 0.89 m/s, 35° | - | - |
| 1777985404 | 17.78° C | 77% | 1008 hPa | 0 mm | 0.89 m/s, 3° | - | - |
| 1777984801 | 17.78° C | 77% | 1008.1 hPa | 0 mm | 0.89 m/s, 21° | - | - |
| 1777984204 | 17.78° C | 78% | 1008.2 hPa | 0 mm | 0.89 m/s, 12° | - | - |
| 1777983604 | 17.78° C | 78% | 1008.2 hPa | 0 mm | 0.89 m/s, 2° | - | - |
| 1777983015 | 17.22° C | 80% | 1008.3 hPa | 0 mm | 0.89 m/s, 8° | - | - |
| 1777982404 | 17.22° C | 79% | 1008.4 hPa | 0 mm | 0.89 m/s, 12° | - | - |
| 1777981200 | 17.22° C | 79% | 1008.5 hPa | 0 mm | 0.89 m/s, 14° | - | - |
| 1777980605 | 17.22° C | 79% | 1008.6 hPa | 0 mm | 0.89 m/s, 3° | - | - |
| 1777980004 | 17.22° C | 78% | 1008.7 hPa | 0 mm | 0.89 m/s, 20° | - | - |
| 1777979401 | 17.78° C | 76% | 1008.7 hPa | 0 mm | 0.89 m/s, 10° | - | - |
| 1777978800 | 18.89° C | 73% | 1008.8 hPa | 0 mm | 0.89 m/s, 2° | - | - |
| 1777978204 | 19.44° C | 71% | 1008.9 hPa | 0 mm | 0.45 m/s, 26° | - | - |
| 1777977601 | 20° C | 70% | 1008.8 hPa | 0 mm | 0.89 m/s, 72° | - | - |
| 1777977000 | 20° C | 69% | 1008.9 hPa | 0 mm | 0.89 m/s, 113° | - | - |
| 1777976400 | 20° C | 68% | 1008.9 hPa | 0 mm | 0.45 m/s, 123° | - | - |
| 1777975805 | 20° C | 71% | 1008.9 hPa | 0 mm | 0.45 m/s, 70° | - | - |
| 1777975200 | 19.44° C | 73% | 1009 hPa | 0 mm | 0.89 m/s, 90° | - | - |
| 1777974601 | 19.44° C | 76% | 1009.1 hPa | 0 mm | 0.89 m/s, 71° | - | - |
| 1777974004 | 18.89° C | 75% | 1009.1 hPa | 0 mm | 0.89 m/s, 90° | - | - |
| 1777973405 | 18.89° C | 77% | 1009.2 hPa | 0 mm | 0.45 m/s, 90° | - | - |
* Rain latest hour (hover to see other rain measurements)
** Current wind speed in m/s (hover to see current wind gust speed)